createdAt,value
2023-02-09T00:01:31.463Z,71.57
2023-02-09T00:04:00.758Z,64.60
2023-02-09T00:06:33.443Z,67.70
2023-02-09T00:09:00.858Z,74.30
2023-02-09T00:11:50.133Z,75.57
2023-02-09T00:14:21.981Z,80.07
2023-02-09T00:16:52.005Z,76.13
2023-02-09T00:19:21.709Z,78.57
2023-02-09T00:21:49.343Z,82.93
2023-02-09T00:24:16.734Z,76.83
2023-02-09T00:26:44.819Z,75.80
2023-02-09T00:29:13.103Z,80.77
2023-02-09T00:31:41.187Z,77.97
2023-02-09T00:34:08.515Z,83.43
2023-02-09T00:36:36.250Z,84.80
2023-02-09T00:39:04.231Z,76.53
2023-02-09T00:41:50.985Z,83.47
2023-02-09T00:44:18.415Z,87.40
2023-02-09T00:46:46.413Z,87.63
2023-02-09T00:49:13.876Z,86.00
2023-02-09T00:51:41.116Z,88.43
2023-02-09T00:54:08.830Z,102.00
2023-02-09T00:56:36.368Z,98.10
2023-02-09T00:59:04.251Z,96.23
2023-02-09T01:01:31.845Z,102.93
2023-02-09T01:03:59.531Z,106.90
2023-02-09T01:06:27.084Z,108.50
2023-02-09T01:08:54.744Z,111.47
2023-02-09T01:11:27.155Z,110.97
2023-02-09T01:13:59.682Z,109.67
2023-02-09T01:16:31.777Z,116.53
2023-02-09T01:19:01.841Z,102.87
2023-02-09T01:21:30.106Z,115.20
2023-02-09T01:23:58.441Z,112.13
2023-02-09T01:26:25.797Z,106.93
2023-02-09T01:28:54.566Z,106.33
2023-02-09T01:31:34.984Z,108.17
2023-02-09T01:34:04.841Z,115.50
2023-02-09T01:36:33.821Z,111.67
2023-02-09T01:39:04.016Z,121.73
2023-02-09T01:41:33.155Z,113.37
2023-02-09T01:44:12.714Z,122.20
2023-02-09T01:46:40.570Z,122.63
2023-02-09T01:49:10.148Z,119.00
2023-02-09T01:51:49.361Z,109.57
2023-02-09T01:54:29.113Z,113.10
2023-02-09T01:57:15.624Z,115.33
2023-02-09T01:59:48.097Z,117.13
2023-02-09T02:02:15.937Z,117.60
2023-02-09T02:04:45.370Z,111.57
2023-02-09T02:07:27.157Z,100.80
2023-02-09T02:09:55.198Z,116.77
2023-02-09T02:12:24.678Z,97.47
2023-02-09T02:14:52.361Z,105.00
2023-02-09T02:17:46.678Z,115.57
2023-02-09T02:20:26.157Z,106.57
2023-02-09T02:23:17.685Z,123.13
2023-02-09T02:26:19.258Z,109.97
2023-02-09T02:28:58.771Z,100.87
2023-02-09T02:32:00.188Z,111.07
2023-02-09T02:35:16.471Z,106.30
2023-02-09T02:38:06.253Z,101.83
2023-02-09T02:40:45.997Z,102.53
2023-02-09T02:43:25.862Z,90.90
2023-02-09T02:46:00.769Z,91.70
2023-02-09T02:48:57.714Z,105.43
2023-02-09T02:51:35.974Z,89.33
2023-02-09T02:54:18.198Z,85.63
2023-02-09T02:56:57.437Z,101.77
2023-02-09T02:59:37.405Z,110.43
2023-02-09T03:02:22.450Z,101.13
2023-02-09T03:04:55.802Z,103.87
2023-02-09T03:07:23.180Z,109.63
2023-02-09T03:09:54.633Z,112.37
2023-02-09T03:12:45.684Z,107.90
2023-02-09T03:15:34.504Z,127.67
2023-02-09T03:18:10.562Z,108.23
2023-02-09T03:20:51.597Z,100.00
2023-02-09T03:23:48.633Z,120.60
2023-02-09T03:26:27.807Z,104.10
2023-02-09T03:28:59.181Z,101.10
2023-02-09T03:31:29.127Z,90.40
2023-02-09T03:34:00.948Z,94.73
2023-02-09T03:36:37.396Z,112.67
2023-02-09T03:39:05.101Z,95.47
2023-02-09T03:41:32.733Z,93.73
2023-02-09T03:44:18.540Z,109.57
2023-02-09T03:46:46.185Z,114.63
2023-02-09T03:49:15.094Z,122.57
2023-02-09T03:51:43.294Z,100.43
2023-02-09T03:54:10.760Z,99.13
2023-02-09T03:56:38.359Z,103.60
2023-02-09T03:59:06.437Z,93.47
2023-02-09T04:01:34.012Z,127.90
2023-02-09T04:04:02.678Z,112.17
2023-02-09T04:06:33.033Z,117.90
2023-02-09T04:09:01.595Z,129.83
2023-02-09T04:11:29.227Z,115.93
2023-02-09T04:13:56.733Z,130.77
2023-02-09T04:16:24.821Z,123.63
2023-02-09T04:18:53.444Z,138.63
2023-02-09T04:21:21.864Z,122.93
2023-02-09T04:23:49.341Z,115.00
2023-02-09T04:26:17.531Z,129.70
2023-02-09T04:28:44.954Z,131.63
2023-02-09T04:31:12.879Z,131.30
2023-02-09T04:33:40.831Z,133.90
2023-02-09T04:36:09.708Z,146.10
2023-02-09T04:38:37.023Z,143.13
2023-02-09T04:41:05.814Z,142.70
2023-02-09T04:43:34.423Z,150.60
2023-02-09T04:46:02.201Z,145.47
2023-02-09T04:48:30.938Z,141.07
2023-02-09T04:50:58.746Z,140.70
2023-02-09T04:53:26.277Z,148.73
2023-02-09T04:55:53.837Z,145.97
2023-02-09T04:58:40.160Z,144.53
2023-02-09T05:01:11.076Z,145.77
2023-02-09T05:03:38.453Z,150.10
2023-02-09T05:06:06.578Z,155.03
2023-02-09T05:08:34.043Z,146.10
2023-02-09T05:11:01.931Z,156.70
2023-02-09T05:13:29.773Z,155.03
2023-02-09T05:15:57.531Z,151.83
2023-02-09T05:18:25.799Z,140.00
2023-02-09T05:20:53.399Z,155.70
2023-02-09T05:23:20.752Z,151.77
2023-02-09T05:25:48.542Z,163.53
2023-02-09T05:28:16.545Z,161.10
2023-02-09T05:30:44.800Z,156.00
2023-02-09T05:33:12.422Z,155.07
2023-02-09T05:35:40.042Z,158.10
2023-02-09T05:38:07.395Z,153.27
2023-02-09T05:40:34.952Z,155.20
2023-02-09T05:43:03.495Z,147.50
2023-02-09T05:45:31.190Z,166.23
2023-02-09T05:47:58.636Z,166.47
2023-02-09T05:50:26.257Z,169.23
2023-02-09T05:52:53.603Z,169.83
2023-02-09T05:55:21.256Z,178.43
2023-02-09T05:57:48.643Z,180.07
2023-02-09T06:00:16.821Z,189.63
2023-02-09T06:02:44.507Z,175.27
2023-02-09T06:05:12.216Z,173.23
2023-02-09T06:07:39.722Z,166.43
2023-02-09T06:10:07.850Z,184.60
2023-02-09T06:12:35.291Z,183.33
2023-02-09T06:15:02.956Z,167.77
2023-02-09T06:17:30.641Z,164.03
2023-02-09T06:19:58.271Z,155.00
2023-02-09T06:22:25.776Z,160.80
2023-02-09T06:24:53.442Z,136.80
2023-02-09T06:27:20.881Z,142.33
2023-02-09T06:29:48.541Z,160.27
2023-02-09T06:32:15.843Z,149.23
2023-02-09T06:34:43.620Z,139.50
2023-02-09T06:37:11.082Z,136.37
2023-02-09T06:39:38.783Z,130.83
2023-02-09T06:42:06.215Z,143.60
2023-02-09T06:44:33.955Z,137.57
2023-02-09T06:47:01.469Z,141.50
2023-02-09T06:49:29.206Z,143.60
2023-02-09T06:51:56.871Z,146.20
2023-02-09T06:54:25.866Z,148.33
2023-02-09T06:56:53.232Z,147.87
2023-02-09T06:59:21.351Z,152.97
2023-02-09T07:01:54.860Z,156.83
2023-02-09T07:04:22.989Z,150.83
2023-02-09T07:06:50.576Z,150.03
2023-02-09T07:09:18.294Z,145.07
2023-02-09T07:11:45.629Z,150.63
2023-02-09T07:14:13.282Z,144.10
2023-02-09T07:16:40.808Z,149.17
2023-02-09T07:19:08.636Z,141.10
2023-02-09T07:21:35.964Z,138.13
2023-02-09T07:24:03.904Z,141.03
2023-02-09T07:26:31.330Z,138.50
2023-02-09T07:28:58.989Z,137.57
2023-02-09T07:31:27.316Z,133.20
2023-02-09T07:33:56.025Z,139.80
2023-02-09T07:36:24.139Z,134.33
2023-02-09T07:38:52.062Z,130.37
2023-02-09T07:41:27.968Z,121.80
2023-02-09T07:43:56.969Z,123.97
2023-02-09T07:46:25.727Z,121.77
2023-02-09T07:48:53.442Z,125.87
2023-02-09T07:51:25.481Z,117.57
2023-02-09T07:53:53.935Z,115.33
2023-02-09T07:56:22.743Z,118.07
2023-02-09T07:58:50.998Z,120.80
2023-02-09T08:01:20.255Z,114.87
2023-02-09T08:03:50.553Z,116.57
2023-02-09T08:06:43.343Z,115.00
2023-02-09T08:09:15.076Z,108.77
2023-02-09T08:11:49.330Z,110.10
2023-02-09T08:14:24.075Z,125.40
2023-02-09T08:17:17.948Z,107.87
2023-02-09T08:20:02.361Z,115.70
2023-02-09T08:22:35.180Z,97.70
2023-02-09T08:25:05.361Z,93.67
2023-02-09T08:27:32.965Z,104.97
2023-02-09T08:30:03.016Z,101.37
2023-02-09T08:32:30.371Z,95.57
2023-02-09T08:34:57.967Z,92.77
2023-02-09T08:37:25.346Z,91.60
2023-02-09T08:39:53.206Z,76.67
2023-02-09T08:42:20.605Z,75.67
2023-02-09T08:44:48.284Z,76.80
2023-02-09T08:47:15.728Z,79.50
2023-02-09T08:49:43.361Z,75.28
2023-02-09T08:52:10.773Z,73.00
2023-02-09T08:54:38.630Z,74.03
2023-02-09T08:57:05.975Z,78.78
2023-02-09T08:59:34.065Z,79.97
2023-02-09T09:02:01.387Z,77.55
2023-02-09T09:04:29.729Z,75.93
2023-02-09T09:06:57.181Z,70.10
2023-02-09T09:09:25.357Z,66.43
2023-02-09T09:11:52.788Z,69.93
2023-02-09T09:14:20.556Z,67.68
2023-02-09T09:16:48.265Z,70.68
2023-02-09T09:19:16.248Z,70.38
2023-02-09T09:21:43.753Z,68.25
2023-02-09T09:24:11.595Z,66.35
2023-02-09T09:26:38.958Z,69.78
2023-02-09T09:29:06.636Z,60.00
2023-02-09T09:31:34.090Z,65.80
2023-02-09T09:34:01.909Z,70.15
2023-02-09T09:36:29.334Z,64.07
2023-02-09T09:38:57.824Z,72.28
2023-02-09T09:41:33.564Z,58.38
2023-02-09T09:44:03.563Z,59.92
2023-02-09T09:46:46.161Z,68.18
2023-02-09T09:49:26.412Z,62.97
2023-02-09T09:52:05.971Z,66.07
2023-02-09T09:54:36.901Z,67.88
2023-02-09T09:57:18.628Z,67.60
2023-02-09T09:59:47.375Z,63.47
2023-02-09T10:02:27.301Z,61.92
2023-02-09T10:05:12.879Z,61.00
2023-02-09T10:07:49.420Z,62.60
2023-02-09T10:10:41.151Z,60.33
2023-02-09T10:13:24.036Z,55.80
2023-02-09T10:15:55.721Z,54.10
2023-02-09T10:18:25.567Z,53.80
2023-02-09T10:21:06.667Z,47.50
2023-02-09T10:24:04.306Z,44.88
2023-02-09T10:26:37.874Z,46.55
2023-02-09T10:29:12.031Z,42.83
2023-02-09T10:31:45.069Z,35.92
2023-02-09T10:34:21.412Z,40.95
2023-02-09T10:36:56.109Z,39.80
2023-02-09T10:39:31.717Z,40.53
2023-02-09T10:42:12.770Z,36.22
2023-02-09T10:44:40.484Z,41.20
2023-02-09T10:47:31.641Z,38.30
2023-02-09T10:50:18.373Z,39.22
2023-02-09T10:53:17.668Z,43.15
2023-02-09T10:55:46.816Z,46.05
2023-02-09T10:58:37.642Z,43.10
2023-02-09T11:01:27.058Z,43.28
2023-02-09T11:04:23.262Z,44.15
2023-02-09T11:06:59.303Z,50.55
2023-02-09T11:09:59.760Z,44.95
2023-02-09T11:12:28.738Z,45.15
2023-02-09T11:14:56.476Z,47.63
2023-02-09T11:17:45.763Z,47.38
2023-02-09T11:20:36.156Z,46.25
2023-02-09T11:23:21.258Z,49.92
2023-02-09T11:26:01.564Z,45.92
2023-02-09T11:28:48.075Z,41.50
2023-02-09T11:31:46.607Z,37.05
2023-02-09T11:34:53.890Z,36.17
2023-02-09T11:37:27.633Z,31.77
2023-02-09T11:40:11.242Z,36.53
2023-02-09T11:43:06.736Z,26.50
2023-02-09T11:46:04.201Z,18.80
2023-02-09T11:48:46.126Z,14.63
2023-02-09T11:51:22.493Z,16.73
2023-02-09T11:54:18.918Z,13.95
2023-02-09T11:56:52.969Z,13.85
2023-02-09T11:59:40.556Z,12.52
2023-02-09T12:02:23.791Z,14.90
2023-02-09T12:05:02.014Z,11.65
2023-02-09T12:08:13.908Z,12.57
2023-02-09T12:11:32.629Z,12.10
2023-02-09T12:14:03.229Z,10.15
2023-02-09T12:16:39.220Z,11.18
2023-02-09T12:19:33.331Z,13.05
2023-02-09T12:22:35.274Z,10.85
2023-02-09T12:25:23.073Z,10.95
2023-02-09T12:28:09.301Z,11.40
2023-02-09T12:30:43.061Z,11.68
2023-02-09T12:33:22.908Z,9.85
2023-02-09T12:36:14.612Z,8.80
2023-02-09T12:38:56.453Z,10.85
2023-02-09T12:41:29.216Z,9.63
2023-02-09T12:44:25.961Z,8.93
2023-02-09T12:46:57.993Z,9.93
2023-02-09T12:49:28.365Z,10.13
2023-02-09T12:52:01.563Z,9.90
2023-02-09T12:55:03.223Z,12.32
2023-02-09T12:57:51.515Z,8.23
2023-02-09T13:00:19.095Z,8.02
2023-02-09T13:02:50.769Z,14.10
2023-02-09T13:05:38.128Z,12.07
2023-02-09T13:08:11.531Z,7.47
2023-02-09T13:10:57.720Z,5.47
2023-02-09T13:13:51.356Z,7.50
2023-02-09T13:16:25.183Z,7.18
2023-02-09T13:19:18.541Z,9.15
2023-02-09T13:22:15.793Z,6.75
2023-02-09T13:24:58.832Z,7.80
2023-02-09T13:27:28.884Z,7.25
2023-02-09T13:29:59.175Z,6.45
2023-02-09T13:32:55.467Z,6.45
2023-02-09T13:35:38.952Z,9.18
2023-02-09T13:38:19.227Z,6.85
2023-02-09T13:40:49.848Z,7.43
2023-02-09T13:43:38.379Z,7.55
2023-02-09T13:46:06.569Z,7.40
2023-02-09T13:48:39.762Z,7.53
2023-02-09T13:51:23.657Z,8.85
2023-02-09T13:54:03.145Z,7.38
2023-02-09T13:56:33.566Z,8.35
2023-02-09T13:59:01.610Z,10.05
2023-02-09T14:01:35.798Z,11.60
2023-02-09T14:04:18.572Z,9.85
2023-02-09T14:07:09.127Z,12.40
2023-02-09T14:09:49.548Z,11.55
2023-02-09T14:12:51.208Z,10.07
2023-02-09T14:15:56.280Z,10.48
2023-02-09T14:18:26.366Z,11.90
2023-02-09T14:21:25.005Z,10.85
2023-02-09T14:23:58.348Z,12.52
2023-02-09T14:26:44.420Z,12.50
2023-02-09T14:29:37.653Z,9.27
2023-02-09T14:32:37.517Z,10.13
2023-02-09T14:35:45.664Z,9.13
2023-02-09T14:38:39.400Z,11.52
2023-02-09T14:41:27.427Z,12.38
2023-02-09T14:44:21.113Z,11.60
2023-02-09T14:46:57.737Z,8.88
2023-02-09T14:49:26.945Z,9.82
2023-02-09T14:52:12.540Z,9.75
2023-02-09T14:54:50.765Z,10.75
2023-02-09T14:57:18.521Z,11.07
2023-02-09T14:59:46.168Z,11.95
2023-02-09T15:02:24.027Z,11.25
2023-02-09T15:04:54.376Z,12.25
2023-02-09T15:07:35.164Z,11.60
2023-02-09T15:10:08.475Z,12.73
2023-02-09T15:12:35.807Z,11.88
2023-02-09T15:15:04.050Z,12.35
2023-02-09T15:17:32.354Z,15.77
2023-02-09T15:19:59.984Z,13.95
2023-02-09T15:22:27.332Z,14.15
2023-02-09T15:24:55.042Z,14.75
2023-02-09T15:27:33.957Z,13.55
2023-02-09T15:30:04.816Z,14.10
2023-02-09T15:32:32.383Z,14.93
2023-02-09T15:35:00.028Z,13.60
2023-02-09T15:37:33.354Z,14.73
2023-02-09T15:40:51.592Z,13.63
2023-02-09T15:43:41.939Z,15.98
2023-02-09T15:46:29.472Z,17.50
2023-02-09T15:48:57.188Z,16.88
2023-02-09T15:51:29.982Z,16.67
2023-02-09T15:54:03.343Z,17.20
2023-02-09T15:56:31.486Z,19.48
2023-02-09T15:59:03.827Z,20.83
2023-02-09T16:01:34.131Z,20.15
2023-02-09T16:04:13.458Z,22.90
2023-02-09T16:06:54.003Z,20.05
2023-02-09T16:09:28.178Z,23.83
2023-02-09T16:11:56.026Z,19.58
2023-02-09T16:14:26.978Z,22.00
2023-02-09T16:16:54.698Z,21.02
2023-02-09T16:19:22.143Z,21.05
2023-02-09T16:21:56.583Z,21.98
2023-02-09T16:24:32.982Z,23.50
2023-02-09T16:27:07.363Z,26.85
2023-02-09T16:29:34.653Z,30.13
2023-02-09T16:32:02.368Z,29.75
2023-02-09T16:34:29.801Z,28.98
2023-02-09T16:36:57.605Z,32.00
2023-02-09T16:39:25.299Z,28.80
2023-02-09T16:41:53.685Z,28.55
2023-02-09T16:44:25.965Z,29.95
2023-02-09T16:46:57.609Z,30.67
2023-02-09T16:49:35.335Z,30.15
2023-02-09T16:52:27.421Z,28.80
2023-02-09T16:55:01.554Z,33.72
2023-02-09T16:57:29.482Z,40.33
2023-02-09T16:59:57.081Z,36.33
2023-02-09T17:02:53.945Z,34.50
2023-02-09T17:05:27.830Z,38.13
2023-02-09T17:08:25.857Z,33.15
2023-02-09T17:10:56.369Z,36.90
2023-02-09T17:13:25.275Z,39.58
2023-02-09T17:16:05.472Z,40.05
2023-02-09T17:18:40.622Z,41.28
2023-02-09T17:21:19.019Z,43.40
2023-02-09T17:23:46.878Z,43.42
2023-02-09T17:26:15.250Z,49.25
2023-02-09T17:28:43.369Z,47.55
2023-02-09T17:31:28.473Z,47.85
2023-02-09T17:33:59.619Z,45.70
2023-02-09T17:36:29.668Z,46.53
2023-02-09T17:39:00.154Z,43.67
2023-02-09T17:41:37.211Z,42.73
2023-02-09T17:44:45.516Z,37.70
2023-02-09T17:47:19.595Z,33.83
2023-02-09T17:49:47.477Z,35.50
2023-02-09T17:52:20.898Z,36.17
2023-02-09T17:54:49.499Z,35.70
2023-02-09T17:57:18.278Z,29.97
2023-02-09T17:59:47.174Z,38.07
2023-02-09T18:02:19.869Z,30.50
2023-02-09T18:04:47.894Z,32.95
2023-02-09T18:07:20.897Z,37.13
2023-02-09T18:09:48.770Z,34.35
2023-02-09T18:12:29.209Z,33.63
2023-02-09T18:14:59.284Z,35.45
2023-02-09T18:17:27.130Z,37.17
2023-02-09T18:20:02.803Z,34.87
2023-02-09T18:22:30.422Z,32.87
2023-02-09T18:25:00.729Z,38.07
2023-02-09T18:27:28.068Z,40.47
2023-02-09T18:29:55.852Z,44.43
2023-02-09T18:32:24.053Z,41.80
2023-02-09T18:34:51.877Z,42.93
2023-02-09T18:37:19.360Z,39.90
2023-02-09T18:39:47.902Z,46.50
2023-02-09T18:42:16.652Z,45.13
2023-02-09T18:44:44.423Z,42.33
2023-02-09T18:47:13.312Z,40.53
2023-02-09T18:49:42.300Z,42.70
2023-02-09T18:52:10.554Z,41.23
2023-02-09T18:54:38.463Z,40.67
2023-02-09T18:57:05.910Z,44.10
2023-02-09T18:59:33.807Z,50.00
2023-02-09T19:02:01.292Z,50.20
2023-02-09T19:04:29.146Z,48.50
2023-02-09T19:06:56.841Z,47.87
2023-02-09T19:09:24.765Z,51.40
2023-02-09T19:11:52.245Z,50.67
2023-02-09T19:14:38.041Z,45.93
2023-02-09T19:17:18.101Z,44.37
2023-02-09T19:19:46.342Z,46.33
2023-02-09T19:22:18.018Z,41.07
2023-02-09T19:24:47.517Z,43.87
2023-02-09T19:27:18.926Z,45.77
2023-02-09T19:29:47.040Z,42.70
2023-02-09T19:32:15.520Z,44.00
2023-02-09T19:34:45.460Z,50.77
2023-02-09T19:37:14.259Z,45.67
2023-02-09T19:39:42.214Z,46.17
2023-02-09T19:42:09.603Z,49.10
2023-02-09T19:44:37.520Z,49.90
2023-02-09T19:47:05.163Z,45.07
2023-02-09T19:49:34.367Z,46.17
2023-02-09T19:52:02.144Z,46.90
2023-02-09T19:54:29.808Z,53.00
2023-02-09T19:56:57.088Z,52.63
2023-02-09T19:59:24.930Z,60.23
2023-02-09T20:01:52.416Z,56.77
2023-02-09T20:04:20.046Z,51.53
2023-02-09T20:06:47.407Z,54.57
2023-02-09T20:09:16.739Z,53.27
2023-02-09T20:11:44.158Z,49.33
2023-02-09T20:14:12.629Z,52.70
2023-02-09T20:16:40.389Z,48.80
2023-02-09T20:19:08.399Z,50.30
2023-02-09T20:21:35.796Z,53.73
2023-02-09T20:24:09.565Z,50.97
2023-02-09T20:26:36.999Z,54.93
2023-02-09T20:29:08.255Z,51.70
2023-02-09T20:31:38.689Z,50.17
2023-02-09T20:34:09.889Z,49.33
2023-02-09T20:36:40.957Z,50.70
2023-02-09T20:39:13.471Z,50.40
2023-02-09T20:42:00.905Z,54.50
2023-02-09T20:44:46.871Z,55.70
2023-02-09T20:47:14.410Z,45.93
2023-02-09T20:49:43.526Z,49.10
2023-02-09T20:52:11.670Z,52.77
2023-02-09T20:54:39.609Z,52.70
2023-02-09T20:57:06.980Z,45.87
2023-02-09T20:59:34.938Z,49.00
2023-02-09T21:02:02.486Z,53.00
2023-02-09T21:04:30.390Z,49.87
2023-02-09T21:07:00.393Z,55.07
2023-02-09T21:09:29.320Z,53.77
2023-02-09T21:11:57.259Z,56.50
2023-02-09T21:14:41.080Z,59.93
2023-02-09T21:17:09.824Z,57.70
2023-02-09T21:19:37.694Z,59.17
2023-02-09T21:22:05.235Z,52.43
2023-02-09T21:24:33.404Z,52.97
2023-02-09T21:27:00.877Z,51.03
2023-02-09T21:29:29.359Z,49.77
2023-02-09T21:32:00.295Z,54.43
2023-02-09T21:34:28.008Z,54.80
2023-02-09T21:36:55.394Z,48.30
2023-02-09T21:39:23.542Z,48.60
2023-02-09T21:42:09.378Z,43.43
2023-02-09T21:44:37.609Z,44.57
2023-02-09T21:47:05.160Z,40.37
2023-02-09T21:49:33.850Z,43.37
2023-02-09T21:52:01.135Z,42.97
2023-02-09T21:54:33.246Z,42.60
2023-02-09T21:57:04.291Z,45.33
2023-02-09T21:59:31.969Z,44.27
2023-02-09T22:01:59.291Z,44.90
2023-02-09T22:04:26.922Z,47.07
2023-02-09T22:06:54.426Z,44.37
2023-02-09T22:09:23.189Z,47.13
2023-02-09T22:11:50.735Z,52.97
2023-02-09T22:14:18.240Z,52.13
2023-02-09T22:16:46.828Z,46.90
2023-02-09T22:19:14.580Z,47.63
2023-02-09T22:21:41.902Z,50.53
2023-02-09T22:24:14.008Z,47.93
2023-02-09T22:26:41.376Z,49.33
2023-02-09T22:29:10.681Z,44.27
2023-02-09T22:31:38.054Z,44.63
2023-02-09T22:34:07.361Z,54.27
2023-02-09T22:36:35.748Z,52.57
2023-02-09T22:39:07.104Z,54.93
2023-02-09T22:41:34.866Z,55.10
2023-02-09T22:44:12.032Z,51.20
2023-02-09T22:46:42.883Z,51.93
2023-02-09T22:49:21.188Z,50.30
2023-02-09T22:51:50.012Z,47.20
2023-02-09T22:54:20.193Z,46.07
2023-02-09T22:56:47.867Z,50.47
2023-02-09T22:59:16.083Z,53.30
2023-02-09T23:01:44.645Z,45.90
2023-02-09T23:04:12.560Z,51.30
2023-02-09T23:06:40.081Z,46.37
2023-02-09T23:09:09.256Z,49.50
2023-02-09T23:11:36.729Z,49.20
2023-02-09T23:14:10.546Z,48.13
2023-02-09T23:16:42.287Z,53.13
2023-02-09T23:19:21.268Z,48.67
2023-02-09T23:21:51.434Z,51.07
2023-02-09T23:24:21.842Z,52.17
2023-02-09T23:26:49.444Z,49.67
2023-02-09T23:29:18.022Z,52.17
2023-02-09T23:31:47.134Z,48.90
2023-02-09T23:34:21.045Z,46.47
2023-02-09T23:36:48.627Z,46.33
2023-02-09T23:39:22.580Z,47.03
2023-02-09T23:41:50.074Z,41.57
2023-02-09T23:44:17.694Z,42.83
2023-02-09T23:46:45.070Z,40.03
2023-02-09T23:49:12.675Z,41.20
2023-02-09T23:51:40.271Z,43.87
2023-02-09T23:54:08.281Z,39.67
2023-02-09T23:56:38.356Z,45.53
2023-02-09T23:59:11.531Z,40.03
